Capt. Ted — WDD6210 — position and weather

sailwx.info

Track history (hours):
 
Tides and Currents Weather Stations Pressure Air Temp Water Temp Dewpoint Dewpoint Depression Visibility Wind Speed Wind Dir Waves Ship Positions

Capt. Ted

Owner: Salisbury Towing Corporation, Havre de Grace, MD. More information available from US FCC via Universal Licensing System and Coast Guard Vessel Documentation Center.

Last reported at 2015-Feb-01 20:06 UTC. Time now 2015-Feb-01 21:15 UTC.
Position N 38°35' W 077°13'.

Length 32 m; draft 2.8 m.

Type: Tug. MMSI: 367169710.

Date/timePositionNaut miles runAvg speedWind from/ knotsBaromVisibWave heightAir tempDewpointWater temp
2015-Feb-01 20:06N 38°35' W 077°13'4 5.9
2015-Feb-01 19:29N 38°32' W 077°16'42 4.2
2015-Feb-01 09:32N 38°07' W 076°33'5 5.0
2015-Feb-01 08:28N 38°04' W 076°28'5 5.0
2015-Feb-01 07:27N 38°01' W 076°22'4 4.9
2015-Feb-01 06:33N 37°59' W 076°18'  
2015-Jan-24 23:32N 37°60' W 076°20'12 0.6
2015-Jan-24 03:23N 38°07' W 076°33'6 6.7
2015-Jan-24 02:33N 38°04' W 076°27'6 6.5
2015-Jan-24 01:33N 38°00' W 076°21'  
Track history (hours):
 
Tides and Currents Weather Stations Pressure Air Temp Water Temp Dewpoint Dewpoint Depression Visibility Wind Speed Wind Dir Waves Ship Positions

Capt. Ted

Owner: Salisbury Towing Corporation, Havre de Grace, MD. More information available from US FCC via Universal Licensing System and Coast Guard Vessel Documentation Center.

Last reported at 2015-Feb-01 20:06 UTC. Time now 2015-Feb-01 21:15 UTC.
Position N 38°35' W 077°13'.

Length 32 m; draft 2.8 m.

Type: Tug. MMSI: 367169710.

Date/timePositionNaut miles runAvg speedWind from/ knotsBaromVisibWave heightAir tempDewpointWater temp
2015-Feb-01 20:06N 38°35' W 077°13'4 5.9
2015-Feb-01 19:29N 38°32' W 077°16'42 4.2
2015-Feb-01 09:32N 38°07' W 076°33'5 5.0
2015-Feb-01 08:28N 38°04' W 076°28'5 5.0
2015-Feb-01 07:27N 38°01' W 076°22'4 4.9
2015-Feb-01 06:33N 37°59' W 076°18'  
2015-Jan-24 23:32N 37°60' W 076°20'12 0.6
2015-Jan-24 03:23N 38°07' W 076°33'6 6.7
2015-Jan-24 02:33N 38°04' W 076°27'6 6.5
2015-Jan-24 01:33N 38°00' W 076°21'  

Dump ship's entire track history